createdAt,value
2018-06-24T00:00:11.689Z,19.30
2018-06-24T00:02:39.348Z,19.30
2018-06-24T00:05:07.072Z,19.30
2018-06-24T00:07:34.740Z,19.30
2018-06-24T00:10:03.435Z,19.30
2018-06-24T00:12:31.100Z,19.30
2018-06-24T00:14:58.765Z,19.30
2018-06-24T00:19:53.836Z,19.30
2018-06-24T00:24:48.984Z,19.30
2018-06-24T00:27:16.683Z,19.30
2018-06-24T00:29:45.454Z,19.30
2018-06-24T00:32:14.124Z,19.30
2018-06-24T00:34:43.967Z,19.30
2018-06-24T00:37:12.863Z,19.20
2018-06-24T00:39:41.171Z,19.10
2018-06-24T00:42:09.844Z,19.10
2018-06-24T00:44:37.588Z,19.20
2018-06-24T00:47:05.258Z,19.20
2018-06-24T00:49:33.252Z,19.30
2018-06-24T00:52:00.923Z,19.30
2018-06-24T00:54:29.627Z,19.30
2018-06-24T00:56:58.355Z,19.30
2018-06-24T00:59:31.863Z,19.30
2018-06-24T01:02:00.408Z,19.30
2018-06-24T01:04:28.108Z,19.30
2018-06-24T01:06:55.921Z,19.30
2018-06-24T01:09:23.602Z,19.30
2018-06-24T01:11:51.424Z,19.30
2018-06-24T01:14:19.136Z,19.30
2018-06-24T01:16:46.828Z,19.30
2018-06-24T01:19:14.631Z,19.30
2018-06-24T01:21:43.101Z,19.30
2018-06-24T01:24:10.999Z,19.30
2018-06-24T01:26:38.800Z,19.30
2018-06-24T01:29:06.468Z,19.30
2018-06-24T01:31:34.176Z,19.30
2018-06-24T01:34:01.907Z,19.20
2018-06-24T01:36:29.620Z,19.30
2018-06-24T01:41:26.373Z,19.30
2018-06-24T01:43:54.083Z,19.20
2018-06-24T01:46:21.756Z,19.20
2018-06-24T01:48:49.465Z,19.20
2018-06-24T01:51:17.128Z,19.20
2018-06-24T01:53:44.836Z,19.20
2018-06-24T01:56:13.736Z,19.20
2018-06-24T01:58:43.174Z,19.20
2018-06-24T02:01:11.965Z,19.20
2018-06-24T02:03:39.688Z,19.20
2018-06-24T02:06:07.428Z,19.20
2018-06-24T02:08:35.108Z,19.20
2018-06-24T02:11:02.768Z,19.20
2018-06-24T02:13:30.472Z,19.20
2018-06-24T02:15:58.135Z,19.20
2018-06-24T02:18:25.799Z,19.20
2018-06-24T02:20:53.461Z,19.20
2018-06-24T02:23:21.128Z,19.20
2018-06-24T02:25:48.796Z,19.20
2018-06-24T02:28:16.736Z,19.20
2018-06-24T02:30:44.468Z,19.20
2018-06-24T02:33:14.140Z,19.20
2018-06-24T02:35:43.140Z,19.20
2018-06-24T02:38:11.769Z,19.20
2018-06-24T02:40:39.484Z,19.20
2018-06-24T02:43:07.151Z,19.20
2018-06-24T02:45:34.917Z,19.20
2018-06-24T02:48:02.629Z,19.20
2018-06-24T02:50:30.370Z,19.20
2018-06-24T02:52:58.080Z,19.20
2018-06-24T02:55:25.753Z,19.20
2018-06-24T02:57:53.416Z,19.20
2018-06-24T03:00:21.260Z,19.20
2018-06-24T03:02:48.969Z,19.20
2018-06-24T03:05:16.683Z,19.20
2018-06-24T03:07:44.352Z,19.20
2018-06-24T03:10:12.972Z,19.20
2018-06-24T03:15:09.295Z,19.20
2018-06-24T03:17:37.007Z,19.20
2018-06-24T03:20:04.674Z,19.20
2018-06-24T03:22:32.417Z,19.20
2018-06-24T03:25:00.108Z,19.20
2018-06-24T03:27:27.808Z,19.20
2018-06-24T03:29:55.471Z,19.20
2018-06-24T03:32:23.312Z,19.20
2018-06-24T03:34:51.026Z,19.20
2018-06-24T03:37:18.869Z,19.20
2018-06-24T03:39:46.544Z,19.20
2018-06-24T03:42:14.248Z,19.20
2018-06-24T03:47:11.082Z,19.20
2018-06-24T03:49:38.780Z,19.20
2018-06-24T03:52:06.439Z,19.20
2018-06-24T03:54:34.143Z,19.10
2018-06-24T03:57:01.813Z,19.20
2018-06-24T03:59:29.524Z,19.20
2018-06-24T04:01:57.232Z,19.20
2018-06-24T04:04:24.970Z,19.20
2018-06-24T04:06:52.676Z,19.20
2018-06-24T04:11:47.800Z,19.20
2018-06-24T04:14:15.465Z,19.20
2018-06-24T04:16:44.364Z,19.20
2018-06-24T04:19:13.567Z,19.20
2018-06-24T04:21:43.200Z,19.20
2018-06-24T04:24:12.217Z,19.20
2018-06-24T04:26:39.884Z,19.20
2018-06-24T04:29:07.548Z,19.10
2018-06-24T04:31:35.404Z,19.10
2018-06-24T04:34:03.068Z,19.20
2018-06-24T04:36:30.760Z,19.10
2018-06-24T04:38:58.440Z,19.10
2018-06-24T04:41:26.120Z,19.20
2018-06-24T04:43:53.788Z,19.20
2018-06-24T04:46:21.459Z,19.20
2018-06-24T04:48:49.128Z,19.20
2018-06-24T04:51:16.823Z,19.20
2018-06-24T04:53:44.700Z,19.20
2018-06-24T04:56:13.395Z,19.20
2018-06-24T04:58:41.145Z,19.20
2018-06-24T05:01:09.024Z,19.20
2018-06-24T05:03:36.701Z,19.20
2018-06-24T05:06:04.433Z,19.20
2018-06-24T05:08:32.096Z,19.20
2018-06-24T05:10:59.770Z,19.20
2018-06-24T05:13:27.448Z,19.20
2018-06-24T05:15:55.116Z,19.20
2018-06-24T05:18:22.775Z,19.10
2018-06-24T05:20:50.488Z,19.10
2018-06-24T05:23:18.160Z,19.20
2018-06-24T05:25:45.832Z,19.10
2018-06-24T05:28:14.139Z,19.10
2018-06-24T05:30:42.891Z,19.10
2018-06-24T05:33:11.122Z,19.10
2018-06-24T05:35:38.796Z,19.10
2018-06-24T05:38:06.573Z,19.10
2018-06-24T05:40:35.240Z,19.10
2018-06-24T05:43:03.075Z,19.10
2018-06-24T05:45:30.744Z,19.10
2018-06-24T05:47:58.504Z,19.10
2018-06-24T05:50:26.179Z,19.10
2018-06-24T05:52:53.848Z,19.10
2018-06-24T05:55:21.519Z,19.10
2018-06-24T06:00:16.750Z,19.10
2018-06-24T06:02:44.450Z,19.10
2018-06-24T06:05:13.539Z,19.10
2018-06-24T06:07:43.185Z,19.10
2018-06-24T06:10:12.142Z,19.10
2018-06-24T06:15:14.156Z,19.10
2018-06-24T06:17:42.801Z,19.10
2018-06-24T06:22:38.734Z,19.10
2018-06-24T06:25:06.670Z,19.10
2018-06-24T06:27:35.172Z,19.10
2018-06-24T06:30:02.859Z,19.10
2018-06-24T06:32:30.519Z,19.10
2018-06-24T06:34:58.772Z,19.10
2018-06-24T06:37:26.480Z,19.10
2018-06-24T06:39:54.157Z,19.10
2018-06-24T06:42:21.852Z,19.10
2018-06-24T06:44:49.591Z,19.10
2018-06-24T06:47:17.399Z,19.10
2018-06-24T06:49:45.101Z,19.10
2018-06-24T06:52:13.898Z,19.00
2018-06-24T06:54:42.594Z,19.10
2018-06-24T06:57:10.376Z,19.00
2018-06-24T06:59:42.867Z,19.10
2018-06-24T07:02:12.597Z,19.00
2018-06-24T07:04:40.403Z,19.00
2018-06-24T07:07:08.964Z,19.00
2018-06-24T07:09:36.677Z,19.10
2018-06-24T07:12:04.353Z,19.10
2018-06-24T07:16:59.484Z,19.00
2018-06-24T07:19:27.196Z,19.00
2018-06-24T07:21:54.870Z,19.00
2018-06-24T07:24:22.728Z,19.00
2018-06-24T07:26:50.589Z,19.00
2018-06-24T07:29:18.264Z,19.00
2018-06-24T07:31:45.977Z,19.00
2018-06-24T07:34:14.731Z,19.00
2018-06-24T07:36:43.393Z,19.00
2018-06-24T07:39:13.794Z,19.00
2018-06-24T07:41:43.493Z,19.00
2018-06-24T07:44:11.237Z,19.00
2018-06-24T07:46:38.957Z,19.00
2018-06-24T07:49:06.635Z,19.00
2018-06-24T07:51:34.316Z,19.00
2018-06-24T07:54:01.998Z,19.00
2018-06-24T07:56:29.737Z,19.00
2018-06-24T08:01:39.844Z,19.00
2018-06-24T08:04:07.552Z,19.00
2018-06-24T08:09:02.995Z,19.00
2018-06-24T08:11:30.710Z,19.00
2018-06-24T08:13:58.426Z,19.00
2018-06-24T08:16:26.129Z,19.00
2018-06-24T08:18:54.368Z,19.00
2018-06-24T08:21:22.070Z,19.00
2018-06-24T08:24:00.605Z,19.00
2018-06-24T08:26:29.393Z,19.00
2018-06-24T08:28:57.245Z,19.00
2018-06-24T08:31:24.921Z,19.00
2018-06-24T08:33:52.810Z,19.00
2018-06-24T08:36:20.749Z,19.00
2018-06-24T08:38:49.653Z,19.00
2018-06-24T08:41:17.374Z,19.00
2018-06-24T08:43:45.061Z,19.00
2018-06-24T08:46:13.709Z,19.00
2018-06-24T08:48:43.327Z,19.00
2018-06-24T08:51:12.028Z,19.00
2018-06-24T08:53:39.701Z,19.00
2018-06-24T08:56:07.373Z,19.00
2018-06-24T08:58:35.061Z,18.90
2018-06-24T09:03:30.164Z,18.90
2018-06-24T09:05:57.904Z,18.90
2018-06-24T09:08:25.581Z,18.90
2018-06-24T09:10:53.276Z,18.90
2018-06-24T09:13:21.004Z,18.90
2018-06-24T09:15:48.779Z,18.90
2018-06-24T09:20:43.924Z,18.90
2018-06-24T09:23:15.964Z,18.90
2018-06-24T09:25:44.140Z,19.00
2018-06-24T09:28:13.952Z,19.00
2018-06-24T09:30:43.627Z,18.90
2018-06-24T09:33:12.324Z,18.90
2018-06-24T09:35:40.061Z,18.90
2018-06-24T09:38:07.791Z,18.90
2018-06-24T09:40:35.508Z,18.90
2018-06-24T09:43:03.385Z,18.90
2018-06-24T09:45:31.093Z,18.90
2018-06-24T09:47:58.766Z,18.90
2018-06-24T09:50:26.472Z,18.90
2018-06-24T09:52:54.189Z,18.90
2018-06-24T09:55:21.840Z,18.90
2018-06-24T09:57:49.518Z,18.90
2018-06-24T10:00:21.416Z,18.90
2018-06-24T10:02:49.420Z,19.00
2018-06-24T10:05:17.969Z,19.00
2018-06-24T10:07:45.656Z,19.20
2018-06-24T10:10:14.488Z,19.30
2018-06-24T10:12:43.108Z,19.40
2018-06-24T10:15:13.300Z,19.50
2018-06-24T10:17:41.660Z,19.60
2018-06-24T10:20:09.341Z,19.60
2018-06-24T10:22:37.193Z,19.60
2018-06-24T10:25:05.386Z,19.70
2018-06-24T10:27:33.175Z,19.70
2018-06-24T10:30:00.896Z,19.70
2018-06-24T10:32:28.567Z,19.70
2018-06-24T10:35:07.007Z,19.70
2018-06-24T10:37:34.773Z,19.70
2018-06-24T10:40:02.445Z,19.70
2018-06-24T10:42:30.200Z,19.70
2018-06-24T10:44:58.675Z,19.60
2018-06-24T10:47:26.585Z,19.70
2018-06-24T10:49:54.257Z,19.60
2018-06-24T10:52:21.988Z,19.60
2018-06-24T10:55:11.236Z,19.60
2018-06-24T10:57:38.951Z,19.70
2018-06-24T11:00:07.626Z,19.60
2018-06-24T11:02:42.552Z,19.60
2018-06-24T11:05:10.296Z,19.60
2018-06-24T11:07:53.380Z,19.60
2018-06-24T11:10:21.086Z,19.60
2018-06-24T11:13:07.662Z,19.60
2018-06-24T11:15:51.245Z,19.60
2018-06-24T11:18:19.761Z,19.60
2018-06-24T11:20:47.433Z,19.60
2018-06-24T11:23:15.389Z,19.50
2018-06-24T11:25:44.561Z,19.50
2018-06-24T11:28:13.397Z,19.50
2018-06-24T11:30:43.950Z,19.50
2018-06-24T11:33:13.186Z,19.50
2018-06-24T11:35:41.320Z,19.50
2018-06-24T11:38:09.101Z,19.50
2018-06-24T11:40:36.802Z,19.50
2018-06-24T11:43:04.531Z,19.40
2018-06-24T11:45:32.215Z,19.40
2018-06-24T11:47:59.889Z,19.40
2018-06-24T11:50:27.641Z,19.40
2018-06-24T11:52:55.366Z,19.40
2018-06-24T11:55:23.087Z,19.40
2018-06-24T11:57:50.754Z,19.40
2018-06-24T12:00:18.525Z,19.40
2018-06-24T12:02:46.447Z,19.40
2018-06-24T12:05:14.592Z,19.40
2018-06-24T12:07:43.119Z,19.40
2018-06-24T12:10:10.971Z,19.40
2018-06-24T12:12:38.654Z,19.40
2018-06-24T12:15:06.325Z,19.40
2018-06-24T12:17:34.040Z,19.40
2018-06-24T12:20:01.802Z,19.40
2018-06-24T12:22:29.481Z,19.40
2018-06-24T12:27:24.576Z,19.40
2018-06-24T12:29:52.358Z,19.40
2018-06-24T12:32:20.074Z,19.40
2018-06-24T12:34:47.775Z,19.40
2018-06-24T12:37:15.458Z,19.40
2018-06-24T12:39:43.659Z,19.40
2018-06-24T12:42:12.917Z,19.40
2018-06-24T12:44:40.600Z,19.40
2018-06-24T12:47:09.158Z,19.40
2018-06-24T12:49:36.880Z,19.40
2018-06-24T12:52:04.629Z,19.40
2018-06-24T12:54:32.451Z,19.40
2018-06-24T12:57:00.146Z,19.40
2018-06-24T12:59:28.140Z,19.30
2018-06-24T13:01:55.773Z,19.30
2018-06-24T13:04:23.514Z,19.40
2018-06-24T13:06:51.197Z,19.40
2018-06-24T13:09:18.877Z,19.40
2018-06-24T13:11:46.553Z,19.40
2018-06-24T13:14:14.342Z,19.30
2018-06-24T13:16:43.142Z,19.30
2018-06-24T13:19:12.775Z,19.30
2018-06-24T13:21:40.578Z,19.30
2018-06-24T13:24:08.255Z,19.30
2018-06-24T13:26:35.985Z,19.30
2018-06-24T13:29:03.675Z,19.30
2018-06-24T13:31:31.384Z,19.30
2018-06-24T13:33:59.185Z,19.30
2018-06-24T13:36:26.902Z,19.30
2018-06-24T13:38:54.661Z,19.30
2018-06-24T13:41:22.341Z,19.30
2018-06-24T13:43:50.025Z,19.30
2018-06-24T13:46:17.748Z,19.30
2018-06-24T13:48:45.441Z,19.30
2018-06-24T13:51:14.704Z,19.30
2018-06-24T13:53:43.227Z,19.30
2018-06-24T13:56:12.497Z,19.30
2018-06-24T13:58:40.253Z,19.30
2018-06-24T14:01:07.920Z,19.30
2018-06-24T14:03:35.692Z,19.30
2018-06-24T14:06:03.428Z,19.30
2018-06-24T14:08:31.341Z,19.30
2018-06-24T14:10:59.022Z,19.30
2018-06-24T14:13:26.745Z,19.30
2018-06-24T14:15:55.481Z,19.30
2018-06-24T14:18:23.236Z,19.30
2018-06-24T14:20:51.926Z,19.20
2018-06-24T14:23:19.711Z,19.30
2018-06-24T14:25:47.368Z,19.30
2018-06-24T14:28:15.072Z,19.30
2018-06-24T14:30:43.774Z,19.30
2018-06-24T14:33:12.913Z,19.30
2018-06-24T14:35:40.656Z,19.30
2018-06-24T14:38:09.418Z,19.30
2018-06-24T14:40:37.142Z,19.20
2018-06-24T14:43:05.088Z,19.30
2018-06-24T14:45:32.796Z,19.30
2018-06-24T14:48:00.550Z,19.30
2018-06-24T14:50:28.260Z,19.20
2018-06-24T14:52:55.969Z,19.20
2018-06-24T14:55:23.645Z,19.20
2018-06-24T14:57:51.394Z,19.20
2018-06-24T15:00:19.152Z,19.20
2018-06-24T15:02:46.905Z,19.20
2018-06-24T15:05:14.628Z,19.20
2018-06-24T15:07:43.377Z,19.20
2018-06-24T15:10:12.588Z,19.20
2018-06-24T15:12:40.317Z,19.20
2018-06-24T15:15:08.134Z,19.20
2018-06-24T15:17:35.862Z,19.20
2018-06-24T15:20:03.643Z,19.20
2018-06-24T15:22:31.499Z,19.20
2018-06-24T15:24:59.214Z,19.20
2018-06-24T15:27:26.969Z,19.20
2018-06-24T15:29:54.646Z,19.20
2018-06-24T15:32:22.396Z,19.20
2018-06-24T15:34:50.202Z,19.20
2018-06-24T15:37:18.181Z,19.20
2018-06-24T15:39:45.945Z,19.20
2018-06-24T15:42:14.916Z,19.20
2018-06-24T15:44:44.252Z,19.20
2018-06-24T15:47:14.618Z,19.20
2018-06-24T15:49:44.053Z,19.20
2018-06-24T15:52:12.973Z,19.20
2018-06-24T15:54:40.645Z,19.20
2018-06-24T15:57:08.325Z,19.20
2018-06-24T15:59:36.078Z,19.20
2018-06-24T16:02:03.839Z,19.20
2018-06-24T16:04:31.655Z,19.20
2018-06-24T16:09:26.797Z,19.20
2018-06-24T16:11:54.520Z,19.20
2018-06-24T16:14:22.270Z,19.20
2018-06-24T16:16:49.973Z,19.20
2018-06-24T16:19:17.688Z,19.20
2018-06-24T16:21:45.390Z,19.20
2018-06-24T16:26:41.973Z,19.20
2018-06-24T16:29:09.697Z,19.20
2018-06-24T16:31:37.456Z,19.20
2018-06-24T16:34:05.422Z,19.10
2018-06-24T16:36:33.170Z,19.20
2018-06-24T16:39:00.922Z,19.20
2018-06-24T16:41:28.752Z,19.20
2018-06-24T16:43:57.440Z,19.20
2018-06-24T16:46:25.303Z,19.10
2018-06-24T16:48:53.200Z,19.10
2018-06-24T16:51:20.951Z,19.10
2018-06-24T16:53:48.658Z,19.10
2018-06-24T16:56:16.361Z,19.10
2018-06-24T16:58:44.501Z,19.10
2018-06-24T17:01:12.809Z,19.10
2018-06-24T17:03:40.643Z,19.10
2018-06-24T17:06:08.372Z,19.10
2018-06-24T17:08:36.144Z,19.10
2018-06-24T17:11:04.013Z,19.10
2018-06-24T17:13:31.911Z,19.10
2018-06-24T17:15:59.611Z,19.10
2018-06-24T17:18:27.312Z,19.10
2018-06-24T17:20:55.054Z,19.10
2018-06-24T17:23:22.794Z,19.10
2018-06-24T17:25:50.501Z,19.10
2018-06-24T17:28:18.399Z,19.10
2018-06-24T17:30:46.304Z,19.20
2018-06-24T17:33:14.135Z,19.20
2018-06-24T17:35:43.314Z,19.30
2018-06-24T17:38:11.873Z,19.40
2018-06-24T17:40:41.757Z,19.50
2018-06-24T17:43:09.845Z,19.60
2018-06-24T17:45:37.896Z,19.70
2018-06-24T17:48:05.834Z,19.80
2018-06-24T17:50:33.769Z,19.80
2018-06-24T17:53:01.631Z,19.90
2018-06-24T17:55:33.129Z,19.90
2018-06-24T17:58:01.553Z,19.90
2018-06-24T18:00:29.478Z,19.90
2018-06-24T18:02:57.465Z,19.90
2018-06-24T18:05:25.387Z,19.90
2018-06-24T18:07:53.465Z,19.90
2018-06-24T18:10:21.400Z,19.90
2018-06-24T18:12:49.444Z,19.90
2018-06-24T18:15:17.531Z,19.90
2018-06-24T18:17:45.469Z,19.80
2018-06-24T18:20:15.265Z,19.80
2018-06-24T18:22:43.981Z,19.80
2018-06-24T18:25:12.552Z,19.80
2018-06-24T18:27:40.504Z,19.80
2018-06-24T18:30:09.410Z,19.80
2018-06-24T18:32:37.417Z,19.80
2018-06-24T18:35:05.396Z,19.70
2018-06-24T18:37:33.605Z,19.80
2018-06-24T18:40:01.561Z,19.80
2018-06-24T18:42:29.553Z,19.70
2018-06-24T18:44:58.558Z,19.70
2018-06-24T18:47:26.877Z,19.70
2018-06-24T18:49:54.833Z,19.70
2018-06-24T18:52:23.699Z,19.60
2018-06-24T18:54:51.908Z,19.70
2018-06-24T18:57:19.886Z,19.70
2018-06-24T18:59:47.988Z,19.60
2018-06-24T19:02:16.129Z,19.60
2018-06-24T19:04:44.097Z,19.60
2018-06-24T19:07:13.038Z,19.60
2018-06-24T19:09:42.103Z,19.60
2018-06-24T19:12:10.122Z,19.60
2018-06-24T19:14:38.129Z,19.60
2018-06-24T19:17:06.122Z,19.60
2018-06-24T19:19:34.117Z,19.60
2018-06-24T19:22:02.114Z,19.60
2018-06-24T19:24:30.481Z,19.60
2018-06-24T19:26:58.646Z,19.60
2018-06-24T19:29:26.629Z,19.60
2018-06-24T19:31:55.788Z,19.50
2018-06-24T19:34:23.803Z,19.60
2018-06-24T19:36:51.777Z,19.60
2018-06-24T19:39:19.869Z,19.50
2018-06-24T19:41:47.877Z,19.50
2018-06-24T19:44:15.930Z,19.50
2018-06-24T19:46:45.646Z,19.50
2018-06-24T19:49:14.205Z,19.50
2018-06-24T19:51:42.661Z,19.50
2018-06-24T19:54:10.597Z,19.50
2018-06-24T19:56:38.599Z,19.60
2018-06-24T19:59:07.144Z,19.60
2018-06-24T20:01:35.330Z,19.60
2018-06-24T20:04:03.310Z,19.60
2018-06-24T20:06:31.323Z,19.60
2018-06-24T20:08:59.262Z,19.50
2018-06-24T20:11:27.255Z,19.50
2018-06-24T20:13:55.335Z,19.50
2018-06-24T20:16:23.318Z,19.50
2018-06-24T20:18:51.257Z,19.50
2018-06-24T20:21:19.210Z,19.50
2018-06-24T20:23:47.125Z,19.40
2018-06-24T20:26:15.028Z,19.40
2018-06-24T20:28:44.041Z,19.40
2018-06-24T20:31:13.188Z,19.40
2018-06-24T20:33:42.162Z,19.40
2018-06-24T20:36:09.987Z,19.40
2018-06-24T20:38:37.716Z,19.40
2018-06-24T20:41:05.408Z,19.40
2018-06-24T20:43:33.143Z,19.40
2018-06-24T20:46:00.825Z,19.40
2018-06-24T20:48:28.485Z,19.40
2018-06-24T20:50:56.267Z,19.40
2018-06-24T20:53:23.910Z,19.40
2018-06-24T20:55:51.588Z,19.40
2018-06-24T20:58:19.265Z,19.30
2018-06-24T21:00:46.982Z,19.40
2018-06-24T21:03:14.749Z,19.30
2018-06-24T21:08:10.900Z,19.40
2018-06-24T21:10:38.568Z,19.40
2018-06-24T21:13:06.241Z,19.40
2018-06-24T21:15:33.915Z,19.30
2018-06-24T21:18:01.590Z,19.30
2018-06-24T21:22:56.684Z,19.30
2018-06-24T21:25:24.417Z,19.30
2018-06-24T21:27:52.080Z,19.30
2018-06-24T21:30:19.893Z,19.30
2018-06-24T21:32:47.565Z,19.30
2018-06-24T21:35:15.231Z,19.30
2018-06-24T21:37:43.381Z,19.30
2018-06-24T21:40:13.706Z,19.30
2018-06-24T21:42:42.799Z,19.30
2018-06-24T21:45:10.456Z,19.30
2018-06-24T21:47:38.121Z,19.30
2018-06-24T21:50:05.784Z,19.30
2018-06-24T21:52:33.473Z,19.30
2018-06-24T21:55:01.141Z,19.30
2018-06-24T21:57:28.809Z,19.30
2018-06-24T21:59:56.520Z,19.30
2018-06-24T22:02:24.191Z,19.20
2018-06-24T22:04:51.869Z,19.30
2018-06-24T22:07:19.541Z,19.30
2018-06-24T22:09:47.221Z,19.30
2018-06-24T22:12:14.929Z,19.30
2018-06-24T22:14:43.705Z,19.30
2018-06-24T22:17:12.025Z,19.30
2018-06-24T22:19:39.692Z,19.30
2018-06-24T22:22:07.913Z,19.30
2018-06-24T22:24:35.631Z,19.30
2018-06-24T22:27:03.331Z,19.30
2018-06-24T22:29:31.221Z,19.30
2018-06-24T22:31:58.922Z,19.30
2018-06-24T22:34:26.585Z,19.30
2018-06-24T22:36:54.288Z,19.30
2018-06-24T22:39:22.823Z,19.20
2018-06-24T22:41:50.501Z,19.20
2018-06-24T22:44:18.208Z,19.20
2018-06-24T22:46:45.925Z,19.20
2018-06-24T22:49:14.556Z,19.20
2018-06-24T22:51:43.100Z,19.20
2018-06-24T22:54:10.782Z,19.20
2018-06-24T22:56:38.452Z,19.30
2018-06-24T22:59:13.100Z,19.20
2018-06-24T23:01:40.765Z,19.20
2018-06-24T23:04:08.440Z,19.20
2018-06-24T23:06:36.109Z,19.20
2018-06-24T23:09:05.413Z,19.20
2018-06-24T23:11:33.077Z,19.20
2018-06-24T23:14:00.744Z,19.20
2018-06-24T23:16:28.412Z,19.20
2018-06-24T23:18:56.276Z,19.20
2018-06-24T23:21:23.972Z,19.20
2018-06-24T23:23:51.644Z,19.20
2018-06-24T23:26:19.321Z,19.20
2018-06-24T23:28:46.984Z,19.20
2018-06-24T23:31:14.648Z,19.20
2018-06-24T23:33:43.360Z,19.20
2018-06-24T23:36:11.034Z,19.20
2018-06-24T23:38:39.609Z,19.20
2018-06-24T23:41:07.273Z,19.20
2018-06-24T23:43:34.964Z,19.20
2018-06-24T23:46:02.753Z,19.20
2018-06-24T23:48:30.417Z,19.20
2018-06-24T23:50:58.117Z,19.20
2018-06-24T23:53:25.791Z,19.20
2018-06-24T23:55:53.466Z,19.20
2018-06-24T23:58:21.140Z,19.20
